Time;durP1;ratioP1;P1;durP2;ratioP2;P2;SDS_P1;SDS_P2;PMS_P1;PMS_P2;Temp;Humidity;BMP_temperature;BMP_pressure;BME280_temperature;BME280_humidity;BME280_pressure;Samples;Min_cycle;Max_cycle;Signal;HPM_P1;HPM_P2
2021/07/13 00:02:08;;;;;;;20.25;9.73;;;;;;;14.55;100.00;100975.50;5199951;28;20057;-81
2021/07/13 00:04:39;;;;;;;13.63;9.45;;;;;;;14.54;100.00;100976.53;5197379;28;20025;-81
2021/07/13 00:07:09;;;;;;;10.50;7.43;;;;;;;14.56;100.00;100977.16;5184535;28;20030;-81
2021/07/13 00:09:40;;;;;;;13.98;9.15;;;;;;;14.58;100.00;100980.53;5194608;28;20399;-81
2021/07/13 00:12:10;;;;;;;12.57;8.80;;;;;;;14.56;100.00;100979.84;5191840;28;20025;-82
2021/07/13 00:14:41;;;;;;;12.77;9.05;;;;;;;14.52;100.00;100974.03;5193317;28;20033;-81
2021/07/13 00:17:12;;;;;;;17.40;8.52;;;;;;;14.47;100.00;100979.13;5197668;28;20109;-81
2021/07/13 00:19:42;;;;;;;13.05;9.07;;;;;;;14.44;100.00;100977.59;5196894;28;20029;-81
2021/07/13 00:22:13;;;;;;;14.75;10.40;;;;;;;14.38;100.00;100982.94;5191490;28;20025;-81
2021/07/13 00:24:43;;;;;;;11.85;7.70;;;;;;;14.38;100.00;100967.56;5191533;28;20552;-82
2021/07/13 00:27:14;;;;;;;15.27;8.73;;;;;;;14.37;100.00;100978.56;5195986;28;20109;-82
2021/07/13 00:29:44;;;;;;;11.75;8.30;;;;;;;14.30;100.00;100981.16;5196890;28;20034;-81
2021/07/13 00:32:15;;;;;;;16.67;8.73;;;;;;;14.28;100.00;100974.28;5193842;28;20028;-82
2021/07/13 00:34:45;;;;;;;11.05;7.05;;;;;;;14.31;100.00;100968.50;5191020;28;20025;-81
2021/07/13 00:37:16;;;;;;;11.43;8.15;;;;;;;14.32;100.00;100972.91;5192759;28;20025;-82
2021/07/13 00:39:46;;;;;;;10.73;7.63;;;;;;;14.31;100.00;100973.91;5196621;28;20424;-81
2021/07/13 00:42:18;;;;;;;14.27;9.07;;;;;;;14.24;100.00;100979.22;5196231;28;20033;-82
2021/07/13 00:44:48;;;;;;;15.65;8.55;;;;;;;14.18;100.00;100980.81;5190607;28;20492;-82
2021/07/13 00:47:21;;;;;;;12.38;9.05;;;;;;;14.17;100.00;100983.69;5190812;28;20034;-82
2021/07/13 00:49:52;;;;;;;12.13;8.25;;;;;;;14.16;100.00;100976.63;5196315;28;20026;-81
2021/07/13 00:52:22;;;;;;;12.85;8.93;;;;;;;14.12;100.00;100968.06;5196806;28;20488;-82
2021/07/13 00:54:54;;;;;;;16.70;11.30;;;;;;;14.14;100.00;100971.41;5192542;28;20511;-82
2021/07/13 00:57:25;;;;;;;14.63;10.18;;;;;;;14.14;100.00;100966.00;5190145;28;20043;-82
2021/07/13 00:59:56;;;;;;;15.50;10.68;;;;;;;14.14;100.00;100974.09;5192910;28;20080;-82
2021/07/13 01:02:26;;;;;;;15.60;10.23;;;;;;;14.12;100.00;100967.22;5201230;28;20136;-82
2021/07/13 01:05:00;;;;;;;15.70;10.48;;;;;;;14.10;100.00;100964.69;5192648;28;20026;-82
2021/07/13 01:07:51;;;;;;;18.88;10.40;;;;;;;14.10;100.00;100966.56;5189735;28;20113;-82
2021/07/13 01:10:33;;;;;;;17.45;10.48;;;;;;;14.11;100.00;100965.56;5189179;28;20029;-82
2021/07/13 01:13:13;;;;;;;10.63;7.32;;;;;;;14.13;100.00;100966.19;5191169;28;20025;-82
2021/07/13 01:15:52;;;;;;;11.63;8.45;;;;;;;14.13;100.00;100968.91;5197074;28;20030;-82
2021/07/13 01:18:27;;;;;;;15.32;10.15;;;;;;;14.11;100.00;100961.00;5196800;28;20125;-82
2021/07/13 01:21:15;;;;;;;13.20;8.52;;;;;;;14.12;100.00;100948.34;5192218;28;20025;-82
2021/07/13 01:23:53;;;;;;;13.23;8.27;;;;;;;14.15;100.00;100956.06;5190223;28;20036;-82
2021/07/13 01:26:36;;;;;;;9.43;6.53;;;;;;;14.10;100.00;100953.06;5190286;28;20049;-82
2021/07/13 01:29:10;;;;;;;9.82;7.72;;;;;;;14.09;100.00;100954.94;5191911;28;20080;-82
2021/07/13 01:31:44;;;;;;;14.52;8.70;;;;;;;14.05;100.00;100953.63;5183067;28;20025;-82
2021/07/13 01:34:18;;;;;;;24.33;9.27;;;;;;;14.03;100.00;100950.28;5182778;28;20022;-82
2021/07/13 01:36:54;;;;;;;13.93;9.50;;;;;;;14.00;100.00;100958.75;5196476;28;20014;-82
2021/07/13 01:39:26;;;;;;;13.88;9.07;;;;;;;13.99;100.00;100957.06;5195060;28;20048;-82
2021/07/13 01:42:02;;;;;;;16.75;9.63;;;;;;;13.98;100.00;100945.47;5192099;28;20380;-81
2021/07/13 01:44:33;;;;;;;14.98;8.52;;;;;;;14.00;100.00;100942.56;5189422;28;20029;-82
2021/07/13 01:47:06;;;;;;;13.60;9.27;;;;;;;14.03;100.00;100944.06;5192760;28;20029;-81
2021/07/13 01:49:38;;;;;;;20.23;10.05;;;;;;;14.06;100.00;100939.16;5199489;28;20100;-82
2021/07/13 01:52:13;;;;;;;20.05;10.68;;;;;;;14.10;100.00;100937.72;5190785;28;20269;-82
2021/07/13 01:54:44;;;;;;;16.50;11.63;;;;;;;14.12;100.00;100937.56;5195077;28;20034;-82
2021/07/13 01:57:16;;;;;;;20.13;11.10;;;;;;;14.15;100.00;100945.25;5167736;28;20543;-82
2021/07/13 01:59:48;;;;;;;13.30;9.02;;;;;;;14.09;100.00;100943.31;5201794;28;20101;-82
2021/07/13 02:02:20;;;;;;;16.85;8.90;;;;;;;14.06;100.00;100943.72;5191718;28;20025;-82
2021/07/13 02:04:52;;;;;;;16.13;9.27;;;;;;;14.06;100.00;100933.75;5192646;28;20030;-82
2021/07/13 02:07:23;;;;;;;17.83;8.52;;;;;;;14.03;100.00;100935.97;5169995;28;20032;-82
2021/07/13 02:09:55;;;;;;;13.18;8.48;;;;;;;13.96;100.00;100931.34;5187482;28;20112;-82
2021/07/13 02:12:26;;;;;;;14.05;9.07;;;;;;;13.92;100.00;100927.31;5194685;28;20021;-82
2021/07/13 02:14:57;;;;;;;14.40;9.18;;;;;;;13.91;100.00;100930.22;5194779;28;20102;-82
2021/07/13 02:17:30;;;;;;;17.05;9.77;;;;;;;13.88;100.00;100942.19;5190592;28;20094;-82
2021/07/13 02:20:05;;;;;;;13.07;9.00;;;;;;;13.87;100.00;100939.69;5188111;28;20051;-82
2021/07/13 02:22:37;;;;;;;18.50;9.00;;;;;;;13.80;100.00;100947.66;5192700;28;20033;-82
2021/07/13 02:25:10;;;;;;;13.85;9.57;;;;;;;13.75;100.00;100958.16;5199366;28;20498;-82
2021/07/13 02:27:57;;;;;;;15.50;9.00;;;;;;;13.73;100.00;100955.66;5190454;28;20057;-82
2021/07/13 02:30:30;;;;;;;16.50;10.18;;;;;;;13.75;100.00;100958.16;5188897;28;20030;-82
2021/07/13 02:33:05;;;;;;;18.20;10.82;;;;;;;13.78;100.00;100952.41;5186575;28;20033;-82
2021/07/13 02:35:44;;;;;;;;;;;;;;;13.80;100.00;100958.47;5192722;28;20036;-82
2021/07/13 02:38:15;;;;;;;15.48;9.10;;;;;;;13.82;100.00;100958.28;5189383;28;19916;-82
2021/07/13 02:40:47;;;;;;;15.38;9.43;;;;;;;13.85;100.00;100963.31;5188256;28;20029;-82
2021/07/13 02:43:19;;;;;;;17.17;9.75;;;;;;;13.88;100.00;100960.25;5189052;28;20030;-82
2021/07/13 02:45:53;;;;;;;14.82;9.15;;;;;;;13.93;100.00;100949.75;5188621;28;20044;-82
2021/07/13 02:48:25;;;;;;;12.63;8.75;;;;;;;13.95;100.00;100950.38;5193026;28;20048;-81
2021/07/13 02:50:57;;;;;;;13.90;8.38;;;;;;;13.98;100.00;100947.31;5193602;28;20026;-82
2021/07/13 02:53:29;;;;;;;12.50;9.00;;;;;;;13.98;100.00;100945.47;5192050;28;20034;-82
2021/07/13 02:56:01;;;;;;;17.50;9.65;;;;;;;14.04;100.00;100941.19;5169578;28;20395;-82
2021/07/13 02:58:33;;;;;;;19.08;11.63;;;;;;;14.10;100.00;100939.59;5182055;28;20117;-82
2021/07/13 03:01:05;;;;;;;15.45;10.02;;;;;;;14.12;100.00;100937.56;5192817;28;20034;-81
2021/07/13 03:03:36;;;;;;;18.00;9.45;;;;;;;14.12;100.00;100932.16;5208599;28;20032;-81
2021/07/13 03:06:08;;;;;;;14.32;9.85;;;;;;;14.12;100.00;100919.50;5191812;28;20026;-82
2021/07/13 03:08:39;;;;;;;18.73;11.95;;;;;;;14.15;100.00;100927.19;5184182;28;20034;-82
2021/07/13 03:11:10;;;;;;;17.33;9.30;;;;;;;14.16;100.00;100926.22;5191192;28;20369;-82
2021/07/13 03:13:42;;;;;;;20.45;11.07;;;;;;;14.17;100.00;100929.75;5167650;28;20022;-82
2021/07/13 03:16:12;;;;;;;13.88;10.00;;;;;;;14.17;100.00;100925.19;5191521;28;20488;-81
2021/07/13 03:18:44;;;;;;;16.83;10.68;;;;;;;14.18;100.00;100920.63;5186309;28;20028;-82
2021/07/13 03:21:22;;;;;;;15.65;10.50;;;;;;;14.14;100.00;100922.00;5188974;28;20030;-82
2021/07/13 03:23:59;;;;;;;17.58;10.30;;;;;;;14.14;100.00;100935.50;5193277;28;20406;-81
2021/07/13 03:26:33;;;;;;;12.40;8.32;;;;;;;14.12;100.00;100933.00;5194849;28;20033;-82
2021/07/13 03:29:06;;;;;;;19.53;10.13;;;;;;;14.09;100.00;100940.63;5189894;28;20064;-81
2021/07/13 03:31:37;;;;;;;15.93;10.25;;;;;;;14.10;100.00;100942.28;5188605;28;20037;-81
2021/07/13 03:34:08;;;;;;;18.45;10.73;;;;;;;14.11;100.00;100943.97;5201075;28;20087;-81
2021/07/13 03:36:39;;;;;;;20.40;12.82;;;;;;;14.14;100.00;100941.72;5183882;28;20061;-81
2021/07/13 03:39:09;;;;;;;15.05;10.02;;;;;;;14.16;100.00;100937.00;5192413;28;20040;-81
2021/07/13 03:41:41;;;;;;;17.52;9.30;;;;;;;14.12;100.00;100937.56;5188747;28;20053;-81
2021/07/13 03:44:14;;;;;;;17.08;9.73;;;;;;;14.10;100.00;100937.72;5187953;28;20034;-81
2021/07/13 03:46:44;;;;;;;20.38;10.13;;;;;;;14.11;100.00;100931.31;5175860;28;20022;-82
2021/07/13 03:49:15;;;;;;;17.90;10.55;;;;;;;14.14;100.00;100938.19;5182539;28;20559;-82
2021/07/13 03:51:47;;;;;;;15.95;10.55;;;;;;;14.18;100.00;100942.19;5192032;28;20377;-82
2021/07/13 03:54:19;;;;;;;19.55;11.73;;;;;;;14.20;100.00;100935.56;5193442;28;20022;-82
2021/07/13 03:56:51;;;;;;;16.55;11.10;;;;;;;14.25;100.00;100930.44;5183956;28;20022;-81
2021/07/13 03:59:21;;;;;;;19.20;10.13;;;;;;;14.27;100.00;100932.97;5193015;28;20853;-82
2021/07/13 04:01:52;;;;;;;19.80;11.65;;;;;;;14.27;100.00;100929.44;5194352;28;20033;-81
2021/07/13 04:04:22;;;;;;;20.45;11.27;;;;;;;14.27;100.00;100940.25;5194252;28;20075;-82
2021/07/13 04:06:53;;;;;;;14.55;9.82;;;;;;;14.26;100.00;100936.72;5182366;28;20030;-82
2021/07/13 04:09:24;;;;;;;17.85;10.07;;;;;;;14.25;100.00;100943.94;5192082;28;20041;-82
2021/07/13 04:11:54;;;;;;;17.88;10.15;;;;;;;14.25;100.00;100954.72;5183420;28;20033;-82
2021/07/13 04:14:24;;;;;;;17.52;10.27;;;;;;;14.28;100.00;100948.13;5194960;28;20037;-82
2021/07/13 04:16:55;;;;;;;23.33;12.35;;;;;;;14.29;100.00;100951.66;5198295;28;20025;-82
2021/07/13 04:19:25;;;;;;;18.15;10.80;;;;;;;14.31;100.00;100961.28;5194189;28;20025;-82
2021/07/13 04:21:56;;;;;;;20.63;10.40;;;;;;;14.34;100.00;100958.19;5191041;28;20376;-81
2021/07/13 04:24:26;;;;;;;22.67;11.48;;;;;;;14.37;100.00;100960.50;5192519;28;20029;-82
2021/07/13 04:26:57;;;;;;;17.05;11.15;;;;;;;14.39;100.00;100960.31;5198206;28;20025;-82
2021/07/13 04:29:27;;;;;;;18.08;10.57;;;;;;;14.40;100.00;100957.41;5196454;28;20022;-82
2021/07/13 04:31:58;;;;;;;22.48;11.90;;;;;;;14.49;100.00;100958.19;5191886;28;20064;-81
2021/07/13 04:34:29;;;;;;;20.63;11.82;;;;;;;14.52;100.00;100959.69;5190733;28;20058;-81
2021/07/13 04:36:59;;;;;;;20.35;12.55;;;;;;;14.56;100.00;100967.22;5196622;28;20492;-81
2021/07/13 04:39:30;;;;;;;19.70;10.43;;;;;;;14.59;100.00;100971.38;5196376;28;20087;-81
2021/07/13 04:42:00;;;;;;;16.83;11.32;;;;;;;14.60;100.00;100965.78;5194008;28;20535;-81
2021/07/13 04:44:31;;;;;;;17.83;10.43;;;;;;;14.63;100.00;100973.53;5190755;28;20444;-82
2021/07/13 04:47:02;;;;;;;16.45;10.32;;;;;;;14.67;100.00;100966.72;5193556;28;20038;-81
2021/07/13 04:49:32;;;;;;;18.50;11.70;;;;;;;14.71;100.00;100968.03;5196366;28;20030;-82
2021/07/13 04:52:03;;;;;;;21.40;12.25;;;;;;;14.79;100.00;100968.91;5195742;28;20057;-82
2021/07/13 04:54:34;;;;;;;22.38;11.82;;;;;;;14.99;100.00;100973.50;5190516;28;20541;-81
2021/07/13 04:57:04;;;;;;;21.30;11.57;;;;;;;14.95;100.00;100968.66;5191613;28;20033;-81
2021/07/13 04:59:35;;;;;;;28.00;12.38;;;;;;;15.03;100.00;100961.28;5189685;28;20100;-82
2021/07/13 05:02:05;;;;;;;21.92;12.48;;;;;;;15.08;100.00;100966.13;5175220;28;20026;-82
2021/07/13 05:04:36;;;;;;;22.10;13.45;;;;;;;15.10;100.00;100969.44;5196441;28;20436;-81
2021/07/13 05:07:06;;;;;;;21.02;12.38;;;;;;;15.16;100.00;100973.25;5186173;28;20030;-82
2021/07/13 05:09:36;;;;;;;27.70;14.45;;;;;;;15.21;100.00;100971.66;5193112;28;20052;-81
2021/07/13 05:12:07;;;;;;;31.90;16.17;;;;;;;15.30;100.00;100969.63;5178800;28;20104;-82
2021/07/13 05:14:37;;;;;;;33.35;18.20;;;;;;;15.36;100.00;100974.28;5194666;28;20045;-82
2021/07/13 05:17:10;;;;;;;33.08;18.17;;;;;;;15.47;100.00;100981.03;5172969;28;20028;-81
2021/07/13 05:19:43;;;;;;;43.58;22.33;;;;;;;15.57;100.00;100978.81;5189596;28;20396;-82
2021/07/13 05:22:14;;;;;;;48.38;22.10;;;;;;;15.66;100.00;100984.94;5190226;28;20017;-82
2021/07/13 05:24:44;;;;;;;46.83;23.92;;;;;;;15.78;100.00;100973.41;5201477;28;20087;-82
2021/07/13 05:27:17;;;;;;;51.15;25.52;;;;;;;15.89;100.00;100984.72;5191604;28;20515;-82
2021/07/13 05:29:47;;;;;;;61.80;27.02;;;;;;;15.97;100.00;100979.97;5189142;28;20037;-82
2021/07/13 05:32:18;;;;;;;54.65;28.02;;;;;;;16.06;100.00;100983.34;5194139;28;20026;-82
2021/07/13 05:34:48;;;;;;;59.83;29.23;;;;;;;16.14;100.00;100977.78;5195854;28;20026;-82
2021/07/13 05:37:19;;;;;;;67.50;30.08;;;;;;;16.26;100.00;100976.16;5194039;28;20025;-82
2021/07/13 05:39:49;;;;;;;64.03;30.90;;;;;;;16.36;100.00;100970.38;5189406;28;20036;-82
2021/07/13 05:42:20;;;;;;;71.63;32.78;;;;;;;16.45;100.00;100958.34;5191408;28;20060;-82
2021/07/13 05:44:50;;;;;;;89.47;37.20;;;;;;;16.51;100.00;100960.25;5195718;28;20120;-82
2021/07/13 05:47:20;;;;;;;93.72;36.97;;;;;;;16.64;100.00;100972.19;5195888;28;20091;-82
2021/07/13 05:49:51;;;;;;;103.88;38.13;;;;;;;16.73;100.00;100974.53;5181862;28;20022;-82
2021/07/13 05:52:21;;;;;;;101.82;40.33;;;;;;;16.85;100.00;100973.94;5195783;28;20033;-82
2021/07/13 05:54:52;;;;;;;110.38;39.65;;;;;;;16.87;100.00;100975.44;5173966;28;20033;-82
2021/07/13 05:57:23;;;;;;;159.52;51.28;;;;;;;17.06;100.00;100977.31;5189730;28;20100;-82
2021/07/13 05:59:53;;;;;;;176.77;56.33;;;;;;;17.18;100.00;100977.56;5173951;28;20029;-82
2021/07/13 06:02:24;;;;;;;210.25;59.25;;;;;;;17.25;100.00;100969.44;5204213;28;20024;-82
2021/07/13 06:04:54;;;;;;;194.98;58.28;;;;;;;17.26;100.00;100971.94;5211232;28;20091;-82
2021/07/13 06:07:25;;;;;;;201.02;62.28;;;;;;;17.25;100.00;100989.25;5187894;28;20472;-82
2021/07/13 06:09:56;;;;;;;229.82;66.43;;;;;;;17.20;100.00;100985.50;5188981;28;20109;-82
2021/07/13 06:12:26;;;;;;;232.82;65.55;;;;;;;17.24;100.00;100987.59;5194587;28;20030;-82
2021/07/13 06:14:57;;;;;;;205.63;60.58;;;;;;;17.33;100.00;100988.22;5195463;28;20370;-82
2021/07/13 06:17:27;;;;;;;242.40;66.72;;;;;;;17.35;100.00;100995.09;5190553;28;20468;-82
2021/07/13 06:19:58;;;;;;;231.00;63.95;;;;;;;17.47;100.00;100981.78;5188154;28;20065;-82
2021/07/13 06:22:28;;;;;;;241.23;67.10;;;;;;;17.45;100.00;100985.72;5193444;28;20026;-82
2021/07/13 06:24:59;;;;;;;249.45;67.28;;;;;;;17.43;100.00;100979.69;5195175;28;20028;-82
2021/07/13 06:27:29;;;;;;;248.93;66.72;;;;;;;17.44;100.00;100987.59;5193237;28;20068;-82
2021/07/13 06:30:00;;;;;;;228.82;65.03;;;;;;;17.53;100.00;100988.25;5188476;28;20120;-82
2021/07/13 06:32:31;;;;;;;222.80;63.80;;;;;;;17.59;100.00;100988.22;5191189;28;20033;-82
2021/07/13 06:35:02;;;;;;;218.00;62.33;;;;;;;17.68;100.00;100986.16;5194200;28;20037;-82
2021/07/13 06:37:33;;;;;;;221.57;66.72;;;;;;;17.68;100.00;100990.75;5194859;28;20032;-83
2021/07/13 06:40:05;;;;;;;230.40;65.55;;;;;;;17.70;100.00;100988.63;5187872;28;20029;-82
2021/07/13 06:42:36;;;;;;;207.43;64.30;;;;;;;17.77;100.00;100987.63;5188992;28;20080;-83
2021/07/13 06:45:07;;;;;;;211.05;62.17;;;;;;;17.83;100.00;100994.94;5193695;28;20030;-82
2021/07/13 06:47:37;;;;;;;198.25;62.65;;;;;;;17.83;100.00;100992.22;5195187;28;20033;-82
2021/07/13 06:50:08;;;;;;;196.70;61.25;;;;;;;17.99;100.00;100996.38;5189483;28;20029;-82
2021/07/13 06:52:39;;;;;;;185.25;62.22;;;;;;;18.05;100.00;100992.78;5188922;28;20435;-82
2021/07/13 06:55:10;;;;;;;190.43;62.42;;;;;;;18.14;100.00;100985.28;5191219;28;20122;-82
2021/07/13 06:57:41;;;;;;;167.95;56.00;;;;;;;18.20;100.00;100989.84;5188559;28;20396;-82
2021/07/13 07:00:12;;;;;;;193.82;62.70;;;;;;;18.16;100.00;100996.75;5189035;28;20146;-82
2021/07/13 07:02:43;;;;;;;197.23;66.88;;;;;;;18.23;100.00;100997.56;5201101;28;20029;-82
2021/07/13 07:05:14;;;;;;;172.70;59.10;;;;;;;18.32;100.00;101003.59;5188510;28;20068;-82
2021/07/13 07:07:46;;;;;;;181.23;59.45;;;;;;;18.35;100.00;101000.47;5181813;28;20430;-82
2021/07/13 07:10:19;;;;;;;194.88;63.85;;;;;;;18.52;100.00;100992.66;5193661;28;20500;-83
2021/07/13 07:12:50;;;;;;;178.82;60.80;;;;;;;18.55;100.00;100990.34;5191074;28;20025;-82
2021/07/13 07:15:20;;;;;;;164.48;58.17;;;;;;;18.56;100.00;100996.63;5188427;28;20036;-82
2021/07/13 07:17:52;;;;;;;166.27;59.92;;;;;;;18.54;100.00;101001.44;5191220;28;20487;-82
2021/07/13 07:20:26;;;;;;;176.13;65.10;;;;;;;18.52;100.00;101004.34;5175727;28;20100;-82
2021/07/13 07:22:58;;;;;;;160.70;58.42;;;;;;;18.52;100.00;100998.91;5194080;28;20503;-82
2021/07/13 07:25:30;;;;;;;167.27;60.75;;;;;;;18.59;100.00;100998.91;5188127;28;20079;-82
2021/07/13 07:28:01;;;;;;;173.70;61.00;;;;;;;18.55;100.00;101001.22;5188802;28;20025;-82
2021/07/13 07:30:32;;;;;;;186.45;63.00;;;;;;;18.66;100.00;101009.75;5192334;28;20040;-82
2021/07/13 07:33:03;;;;;;;177.20;64.35;;;;;;;18.77;100.00;100995.50;5194506;28;20029;-82
2021/07/13 07:35:33;;;;;;;182.35;66.43;;;;;;;18.72;100.00;100998.88;5190879;28;20059;-82
2021/07/13 07:38:04;;;;;;;170.70;63.85;;;;;;;18.92;100.00;100998.78;5184843;28;20017;-82
2021/07/13 07:40:34;;;;;;;174.45;64.18;;;;;;;18.94;100.00;100993.97;5191197;28;20483;-82
2021/07/13 07:43:05;;;;;;;177.57;64.00;;;;;;;18.83;100.00;101000.09;5188262;28;20032;-82
2021/07/13 07:45:36;;;;;;;171.30;62.92;;;;;;;18.98;100.00;101005.25;5189438;28;20381;-82
2021/07/13 07:48:06;;;;;;;160.95;61.97;;;;;;;18.98;100.00;100997.94;5197399;28;20034;-82
2021/07/13 07:50:37;;;;;;;183.07;66.57;;;;;;;19.09;100.00;100996.41;5196916;28;20079;-82
2021/07/13 07:53:07;;;;;;;163.75;62.63;;;;;;;19.29;100.00;100991.66;5185017;28;20056;-82
2021/07/13 07:55:38;;;;;;;165.88;62.13;;;;;;;19.43;100.00;100989.69;5184900;28;20500;-82
2021/07/13 07:58:09;;;;;;;158.68;61.03;;;;;;;19.37;100.00;100985.94;5193194;28;20529;-82
2021/07/13 08:00:40;;;;;;;156.40;60.25;;;;;;;19.58;100.00;100989.34;5190644;28;20022;-82
2021/07/13 08:03:10;;;;;;;146.40;59.13;;;;;;;19.58;100.00;100986.63;5206446;28;20029;-82
2021/07/13 08:05:42;;;;;;;160.57;60.90;;;;;;;19.58;100.00;100989.34;5198293;28;20531;-81
2021/07/13 08:08:13;;;;;;;134.23;55.35;;;;;;;19.65;100.00;100988.25;5196967;28;20022;-81
2021/07/13 08:10:43;;;;;;;145.63;57.25;;;;;;;19.57;100.00;100987.66;5190676;28;20031;-82
2021/07/13 08:13:14;;;;;;;132.25;53.50;;;;;;;19.56;100.00;100991.44;5191784;28;20034;-82
2021/07/13 08:15:44;;;;;;;141.98;55.47;;;;;;;19.53;100.00;100989.16;5198062;28;20034;-82
2021/07/13 08:18:16;;;;;;;133.80;54.10;;;;;;;19.66;100.00;100989.91;5197449;28;20407;-82
2021/07/13 08:20:46;;;;;;;130.73;54.92;;;;;;;19.78;100.00;101000.06;5192102;28;20403;-81
2021/07/13 08:23:17;;;;;;;142.88;55.97;;;;;;;19.86;100.00;101003.34;5191110;28;20025;-82
2021/07/13 08:25:47;;;;;;;133.98;54.88;;;;;;;19.77;100.00;101015.56;5195421;28;20033;-82
2021/07/13 08:28:18;;;;;;;134.15;55.17;;;;;;;19.70;100.00;101012.09;5197775;28;20055;-82
2021/07/13 08:30:48;;;;;;;144.40;57.60;;;;;;;19.78;100.00;101011.81;5225210;22;20107;-66
2021/07/13 08:33:19;;;;;;;136.23;55.45;;;;;;;19.86;100.00;101006.06;5198763;28;20476;-65
2021/07/13 08:35:49;;;;;;;132.45;52.88;;;;;;;20.00;100.00;101006.78;5195524;28;20112;-65
2021/07/13 08:38:20;;;;;;;121.93;52.58;;;;;;;20.23;100.00;101008.88;5202820;28;20025;-65
2021/07/13 08:40:50;;;;;;;123.40;48.53;;;;;;;20.43;100.00;101006.75;5190342;28;20088;-66
2021/07/13 08:43:23;;;;;;;117.32;48.30;;;;;;;20.55;100.00;101001.38;5196215;28;20029;-66
2021/07/13 08:45:55;;;;;;;118.18;51.53;;;;;;;20.73;100.00;100996.97;5196448;28;20483;-65
2021/07/13 08:48:26;;;;;;;132.98;52.55;;;;;;;20.79;100.00;100999.63;5192096;28;20022;-65
2021/07/13 08:51:00;;;;;;;122.75;53.17;;;;;;;20.86;100.00;100999.53;5199500;28;20033;-65
2021/07/13 08:53:30;;;;;;;123.47;51.40;;;;;;;20.82;100.00;101004.59;5193508;28;20075;-65
2021/07/13 08:56:01;;;;;;;116.55;49.28;;;;;;;20.98;100.00;101005.00;5188011;28;20116;-66
2021/07/13 08:58:31;;;;;;;127.50;53.97;;;;;;;20.91;100.00;100997.75;5194497;28;20028;-66
2021/07/13 09:01:02;;;;;;;124.50;52.17;;;;;;;20.91;100.00;101005.13;5171892;28;20387;-65
2021/07/13 09:03:32;;;;;;;119.15;50.70;;;;;;;20.88;100.00;100998.25;5215742;28;20116;-66
2021/07/13 09:06:04;;;;;;;114.60;49.70;;;;;;;20.87;100.00;100996.56;5193373;28;20032;-65
2021/07/13 09:08:35;;;;;;;124.07;48.97;;;;;;;20.72;100.00;101004.31;5184152;28;20034;-66
2021/07/13 09:11:11;;;;;;;121.72;52.70;;;;;;;;;;5193946;28;20029;-66
2021/07/13 09:13:45;;;;;;;122.05;51.25;;;;;;;20.68;100.00;100997.66;5195067;28;20037;-66
2021/07/13 09:16:18;;;;;;;109.17;49.43;;;;;;;20.72;100.00;101009.75;5194059;28;20108;-66
2021/07/13 09:18:50;;;;;;;121.50;52.55;;;;;;;20.53;100.00;101008.13;5184300;28;20029;-65
2021/07/13 09:21:33;;;;;;;112.15;50.53;;;;;;;20.56;100.00;101000.31;5194646;28;20041;-66
2021/07/13 09:24:14;;;;;;;121.97;53.85;;;;;;;20.54;100.00;101010.63;5190069;28;20022;-66
2021/07/13 09:26:53;;;;;;;126.40;54.75;;;;;;;20.73;100.00;101005.13;5189844;28;20025;-66
2021/07/13 09:29:40;;;;;;;117.85;52.45;;;;;;;20.98;100.00;101010.47;5201881;28;20064;-65
2021/07/13 09:32:16;;;;;;;116.30;52.58;;;;;;;20.86;100.00;101021.34;5191706;28;20056;-65
2021/07/13 09:34:51;;;;;;;109.20;51.45;;;;;;;20.97;100.00;101020.56;5184805;28;20030;-65
2021/07/13 09:37:26;;;;;;;110.28;52.05;;;;;;;21.36;100.00;101013.72;5194134;28;20040;-65
2021/07/13 09:40:04;;;;;;;;;;;;;;;21.55;100.00;101016.38;5188824;28;20022;-65
2021/07/13 09:42:42;;;;;;;89.78;46.30;;;;;;;21.73;100.00;101016.28;5189457;28;19941;-65
2021/07/13 09:45:24;;;;;;;91.10;46.63;;;;;;;21.57;100.00;101012.34;5192332;28;20927;-65
2021/07/13 09:47:57;;;;;;;85.60;45.80;;;;;;;21.54;100.00;101010.09;5195849;28;20117;-66
2021/07/13 09:50:31;;;;;;;85.35;45.33;;;;;;;21.34;100.00;101018.59;5193444;28;20039;-65
2021/07/13 09:53:04;;;;;;;83.60;44.60;;;;;;;21.28;100.00;101005.00;5182543;28;20030;-65
2021/07/13 09:55:35;;;;;;;91.97;47.08;;;;;;;21.51;100.00;101007.81;5194618;28;20027;-65
2021/07/13 09:58:13;;;;;;;87.40;45.83;;;;;;;21.70;100.00;101005.84;5190486;28;20057;-65
2021/07/13 10:00:47;;;;;;;88.57;44.88;;;;;;;21.70;100.00;101014.84;5188161;28;20105;-65
2021/07/13 10:03:20;;;;;;;81.55;44.85;;;;;;;21.63;100.00;101013.28;5202377;28;20021;-65
2021/07/13 10:05:52;;;;;;;73.22;42.53;;;;;;;21.61;100.00;101007.25;5181974;28;20022;-65
2021/07/13 10:08:25;;;;;;;85.10;45.53;;;;;;;21.54;100.00;101014.72;5194917;28;20036;-65
2021/07/13 10:10:56;;;;;;;83.88;45.85;;;;;;;21.58;100.00;101016.72;5187793;28;20028;-65
2021/07/13 10:13:28;;;;;;;81.78;47.55;;;;;;;21.55;100.00;101019.13;5188914;28;20435;-66
2021/07/13 10:15:58;;;;;;;80.63;46.08;;;;;;;21.71;100.00;101010.22;5192354;28;20056;-66
2021/07/13 10:18:29;;;;;;;82.15;46.92;;;;;;;21.77;100.00;101002.97;5194436;28;20026;-65
2021/07/13 10:20:59;;;;;;;85.40;46.10;;;;;;;22.30;100.00;101008.34;5191332;28;20100;-65
2021/07/13 10:23:30;;;;;;;76.63;43.85;;;;;;;22.25;100.00;101004.69;5188455;28;20026;-65
2021/07/13 10:26:01;;;;;;;90.07;47.00;;;;;;;22.19;100.00;100999.09;5189875;28;20037;-66
2021/07/13 10:28:34;;;;;;;74.00;44.58;;;;;;;22.37;100.00;101000.84;5194845;28;20108;-65
2021/07/13 10:31:05;;;;;;;81.47;46.92;;;;;;;22.33;100.00;101002.38;5193463;28;20036;-65
2021/07/13 10:33:37;;;;;;;78.68;43.90;;;;;;;22.61;100.00;101007.09;5188948;28;20060;-65
2021/07/13 10:36:28;;;;;;;76.05;45.55;;;;;;;22.68;100.00;100993.28;5187913;28;20037;-66
2021/07/13 10:39:26;;;;;;;87.03;49.67;;;;;;;22.46;100.00;101009.50;5189448;28;20033;-65
2021/07/13 10:41:59;;;;;;;78.43;45.65;;;;;;;22.36;100.00;101003.81;5190384;28;20551;-65
2021/07/13 10:44:47;;;;;;;76.28;45.08;;;;;;;22.58;100.00;101007.56;5188235;28;20036;-65
2021/07/13 10:47:27;;;;;;;73.57;43.28;;;;;;;22.82;100.00;100999.28;5187782;28;20085;-65
2021/07/13 10:50:16;;;;;;;77.70;43.47;;;;;;;22.90;100.00;100998.94;5192338;28;20227;-65
2021/07/13 10:53:17;;;;;;;77.90;45.65;;;;;;;22.88;100.00;100996.44;5193773;28;20488;-65
2021/07/13 10:55:49;;;;;;;71.80;43.30;;;;;;;23.00;100.00;100997.22;5193853;28;20716;-65
2021/07/13 10:58:22;;;;;;;82.28;47.67;;;;;;;22.96;100.00;101000.69;5191761;28;20493;-65
2021/07/13 11:00:58;;;;;;;76.45;44.90;;;;;;;22.81;100.00;101012.13;5165167;28;20026;-65
2021/07/13 11:03:30;;;;;;;80.13;49.47;;;;;;;22.69;100.00;101001.25;5206505;28;20553;-65
2021/07/13 11:06:03;;;;;;;76.93;45.80;;;;;;;22.55;100.00;101002.59;5163249;28;20042;-64
2021/07/13 11:11:14;;;;;;;76.75;44.47;;;;;;;22.62;100.00;101016.94;5189914;28;20041;-64
2021/07/13 11:13:59;;;;;;;72.68;42.90;;;;;;;22.71;100.00;101006.47;5187253;28;20021;-65
2021/07/13 11:16:35;;;;;;;74.75;43.72;;;;;;;22.62;100.00;101008.75;5188317;28;20033;-65
2021/07/13 11:19:12;;;;;;;76.28;43.25;;;;;;;22.51;100.00;101012.34;5188226;28;20100;-65
2021/07/13 11:21:46;;;;;;;76.00;42.95;;;;;;;22.44;100.00;101006.16;5188970;28;20706;-64
2021/07/13 11:24:21;;;;;;;70.68;41.28;;;;;;;22.38;100.00;101007.97;5195150;28;20025;-65
2021/07/13 11:26:54;;;;;;;78.50;41.80;;;;;;;22.08;100.00;101002.63;5197878;28;20026;-65
2021/07/13 11:29:26;;;;;;;68.32;41.17;;;;;;;22.09;100.00;101009.78;5196055;28;20041;-65